Hopkins, Missouri
Current Conditions -  °F | °C
As of 2:15 AM on Friday 31 Oct 2014 (Local Time) from KICL Reporting Station
Overcast Overcast  
Wind Chill: 31°   Ceiling: 2200
Heat Index: 39°   Visibility: 10mi
Dew Point: 32°   Wind: 15mph
Humidity: 75%   Direction: 350°N
Pressure: 30.38"   Gusts: 29mph
Location:  40.55°N, 94.82°W
Report Text: KICL 310715Z AUTO 35013G25KT 10SM OVC022 04/M00 A3038 RMK AO2
Loading
Personal Weather Stations






























Interactive Weather Map
Tropical Storm Tracking
New forecast layout! Learn more

10-Day Weather Forecast

Advertisements
Track Severe Weather on mobile